createdAt,value
2023-03-11T00:00:32.976Z,1.70
2023-03-11T00:05:42.022Z,1.70
2023-03-11T00:10:49.812Z,1.60
2023-03-11T00:15:56.778Z,1.60
2023-03-11T00:21:03.058Z,1.60
2023-03-11T00:26:08.389Z,1.60
2023-03-11T00:31:14.956Z,1.60
2023-03-11T00:36:23.268Z,1.60
2023-03-11T00:41:29.984Z,1.60
2023-03-11T00:46:35.914Z,1.60
2023-03-11T00:51:41.370Z,1.60
2023-03-11T00:56:46.623Z,1.50
2023-03-11T01:01:52.045Z,1.50
2023-03-11T01:06:57.537Z,1.50
2023-03-11T01:12:02.957Z,1.60
2023-03-11T01:17:08.265Z,1.50
2023-03-11T01:22:14.340Z,1.50
2023-03-11T01:27:19.716Z,1.50
2023-03-11T01:32:25.265Z,1.50
2023-03-11T01:37:30.618Z,1.50
2023-03-11T01:42:35.908Z,1.50
2023-03-11T01:47:42.939Z,1.50
2023-03-11T01:52:49.226Z,1.50
2023-03-11T01:57:56.142Z,1.50
2023-03-11T02:03:05.497Z,1.50
2023-03-11T02:08:10.919Z,1.40
2023-03-11T02:13:17.737Z,1.40
2023-03-11T02:18:23.152Z,1.40
2023-03-11T02:23:31.383Z,1.40
2023-03-11T02:28:38.614Z,1.40
2023-03-11T02:33:45.285Z,1.40
2023-03-11T02:38:50.505Z,1.40
2023-03-11T02:43:56.078Z,1.40
2023-03-11T02:49:02.000Z,1.40
2023-03-11T02:54:07.374Z,1.40
2023-03-11T02:59:14.361Z,1.40
2023-03-11T03:04:19.735Z,1.40
2023-03-11T03:09:25.140Z,1.40
2023-03-11T03:14:32.168Z,1.40
2023-03-11T03:19:37.434Z,1.40
2023-03-11T03:24:42.729Z,1.30
2023-03-11T03:29:48.032Z,1.40
2023-03-11T03:34:54.896Z,1.30
2023-03-11T03:40:00.282Z,1.40
2023-03-11T03:45:08.085Z,1.40
2023-03-11T03:50:14.408Z,1.40
2023-03-11T03:55:19.691Z,1.30
2023-03-11T04:00:24.871Z,1.30
2023-03-11T04:05:30.138Z,1.30
2023-03-11T04:10:35.504Z,1.30
2023-03-11T04:15:41.203Z,1.30
2023-03-11T04:20:46.768Z,1.30
2023-03-11T04:25:51.961Z,1.30
2023-03-11T04:30:57.320Z,1.20
2023-03-11T04:36:07.686Z,1.20
2023-03-11T04:41:12.978Z,1.20
2023-03-11T04:46:18.255Z,1.20
2023-03-11T04:51:23.807Z,1.20
2023-03-11T04:56:29.089Z,1.30
2023-03-11T05:01:34.336Z,1.30
2023-03-11T05:06:41.390Z,1.20
2023-03-11T05:11:46.599Z,1.30
2023-03-11T05:16:52.276Z,1.30
2023-03-11T05:21:58.319Z,1.20
2023-03-11T05:27:03.634Z,1.20
2023-03-11T05:32:08.883Z,1.20
2023-03-11T05:37:14.865Z,1.10
2023-03-11T05:42:21.486Z,1.20
2023-03-11T05:47:26.866Z,1.10
2023-03-11T05:52:37.289Z,1.20
2023-03-11T05:57:45.930Z,1.10
2023-03-11T06:03:12.219Z,1.10
2023-03-11T06:08:20.825Z,1.10
2023-03-11T06:13:26.033Z,1.10
2023-03-11T06:18:31.806Z,1.20
2023-03-11T06:23:38.178Z,1.20
2023-03-11T06:28:52.880Z,1.20
2023-03-11T06:33:59.442Z,1.20
2023-03-11T06:39:07.923Z,1.20
2023-03-11T06:44:14.763Z,1.20
2023-03-11T06:49:20.822Z,1.20
2023-03-11T06:54:26.771Z,1.20
2023-03-11T06:59:31.939Z,1.20
2023-03-11T07:04:38.679Z,1.20
2023-03-11T07:09:44.169Z,1.20
2023-03-11T07:14:50.719Z,1.20
2023-03-11T07:19:56.085Z,1.20
2023-03-11T07:25:01.153Z,1.20
2023-03-11T07:30:06.715Z,1.20
2023-03-11T07:35:11.826Z,1.30
2023-03-11T07:40:17.443Z,1.30
2023-03-11T07:45:22.805Z,1.40
2023-03-11T07:50:28.151Z,1.40
2023-03-11T07:55:33.300Z,1.30
2023-03-11T08:00:38.491Z,1.30
2023-03-11T08:05:44.362Z,1.20
2023-03-11T08:10:49.850Z,1.20
2023-03-11T08:15:55.196Z,1.20
2023-03-11T08:21:02.544Z,1.10
2023-03-11T08:26:10.732Z,1.10
2023-03-11T08:31:19.326Z,1.00
2023-03-11T08:36:25.075Z,0.90
2023-03-11T08:41:31.623Z,1.00
2023-03-11T08:46:38.957Z,1.00
2023-03-11T08:51:44.301Z,1.00
2023-03-11T08:56:49.967Z,0.90
2023-03-11T09:01:55.181Z,0.90
2023-03-11T09:07:00.364Z,0.90
2023-03-11T09:12:07.508Z,0.90
2023-03-11T09:17:14.648Z,0.90
2023-03-11T09:22:20.220Z,0.90
2023-03-11T09:27:25.459Z,0.90
2023-03-11T09:32:30.785Z,0.90
2023-03-11T09:37:36.593Z,1.00
2023-03-11T09:43:01.173Z,1.00
2023-03-11T09:48:16.612Z,0.90
2023-03-11T09:53:30.773Z,0.90
2023-03-11T09:58:39.490Z,0.90
2023-03-11T10:03:45.897Z,1.00
2023-03-11T10:09:27.744Z,1.00
2023-03-11T10:14:41.290Z,1.00
2023-03-11T10:19:49.515Z,1.00
2023-03-11T10:25:12.226Z,1.10
2023-03-11T10:30:21.347Z,1.10
2023-03-11T10:35:32.205Z,1.20
2023-03-11T10:40:40.029Z,1.30
2023-03-11T10:45:51.764Z,1.50
2023-03-11T10:51:06.073Z,1.80
2023-03-11T10:56:16.066Z,1.90
2023-03-11T11:01:44.041Z,1.80
2023-03-11T11:06:49.271Z,1.70
2023-03-11T11:12:04.297Z,1.80
2023-03-11T11:17:12.566Z,1.80
2023-03-11T11:22:20.635Z,1.90
2023-03-11T11:27:29.606Z,2.10
2023-03-11T11:32:34.846Z,2.10
2023-03-11T11:37:58.308Z,2.10
2023-03-11T11:43:09.153Z,2.10
2023-03-11T11:48:29.295Z,2.20
2023-03-11T11:53:40.347Z,2.20
2023-03-11T11:58:46.162Z,2.00
2023-03-11T12:04:07.047Z,2.00
2023-03-11T12:09:24.613Z,2.00
2023-03-11T12:14:38.569Z,1.90
2023-03-11T12:19:56.697Z,2.10
2023-03-11T12:25:21.677Z,2.00
2023-03-11T12:30:39.261Z,2.20
2023-03-11T12:35:51.403Z,2.10
2023-03-11T12:41:09.044Z,1.90
2023-03-11T12:46:18.098Z,1.90
2023-03-11T12:51:34.001Z,2.00
2023-03-11T12:56:42.195Z,2.00
2023-03-11T13:01:52.577Z,2.00
2023-03-11T13:07:33.470Z,2.10
2023-03-11T13:12:47.137Z,2.20
2023-03-11T13:18:13.693Z,2.40
2023-03-11T13:23:24.972Z,2.40
2023-03-11T13:28:42.003Z,2.30
2023-03-11T13:33:56.264Z,2.30
2023-03-11T13:39:13.494Z,2.30
2023-03-11T13:44:27.497Z,2.40
2023-03-11T13:49:35.785Z,2.60
2023-03-11T13:54:55.890Z,2.80
2023-03-11T14:00:08.142Z,2.80
2023-03-11T14:05:19.397Z,2.80
2023-03-11T14:10:27.527Z,2.70
2023-03-11T14:15:35.658Z,2.60
2023-03-11T14:20:40.963Z,2.60
2023-03-11T14:25:46.991Z,2.50
2023-03-11T14:31:07.954Z,2.50
2023-03-11T14:36:15.905Z,2.50
2023-03-11T14:41:21.259Z,2.40
2023-03-11T14:46:29.394Z,2.30
2023-03-11T14:51:36.697Z,2.10
2023-03-11T14:56:45.053Z,2.10
2023-03-11T15:01:51.948Z,2.40
2023-03-11T15:06:58.619Z,2.40
2023-03-11T15:12:05.620Z,2.50
2023-03-11T15:17:43.544Z,2.40
2023-03-11T15:22:42.604Z,2.40
2023-03-11T15:27:54.970Z,2.60
2023-03-11T15:33:00.317Z,2.60
2023-03-11T15:38:21.597Z,2.50
2023-03-11T15:43:32.585Z,2.30
2023-03-11T15:48:37.873Z,2.30
2023-03-11T15:53:42.950Z,2.20
2023-03-11T15:58:48.100Z,2.10
2023-03-11T16:03:53.385Z,2.00
2023-03-11T16:08:58.680Z,1.90
2023-03-11T16:14:05.385Z,1.90
2023-03-11T16:19:10.625Z,1.90
2023-03-11T16:24:21.829Z,1.80
2023-03-11T16:29:27.704Z,1.70
2023-03-11T16:34:32.885Z,1.60
2023-03-11T16:39:39.146Z,1.50
2023-03-11T16:44:44.265Z,1.50
2023-03-11T16:49:51.130Z,1.40
2023-03-11T16:54:57.069Z,1.20
2023-03-11T17:00:02.255Z,1.10
2023-03-11T17:05:09.264Z,1.00
2023-03-11T17:10:14.612Z,1.00
2023-03-11T17:15:19.863Z,0.90
2023-03-11T17:20:25.125Z,0.80
2023-03-11T17:25:30.282Z,0.80
2023-03-11T17:30:37.585Z,0.80
2023-03-11T17:35:42.509Z,0.80
2023-03-11T17:40:47.752Z,0.80
2023-03-11T17:45:54.137Z,0.90
2023-03-11T17:50:59.349Z,0.90
2023-03-11T17:56:06.003Z,1.00
2023-03-11T18:01:30.028Z,1.00
2023-03-11T18:06:35.081Z,0.90
2023-03-11T18:11:40.288Z,0.90
2023-03-11T18:16:45.831Z,1.00
2023-03-11T18:21:52.940Z,1.00
2023-03-11T18:26:58.748Z,1.00
2023-03-11T18:32:03.886Z,0.80
2023-03-11T18:37:09.172Z,0.70
2023-03-11T18:42:35.334Z,0.60
2023-03-11T18:47:41.095Z,0.60
2023-03-11T18:52:46.393Z,0.60
2023-03-11T18:57:53.348Z,0.50
2023-03-11T19:02:58.413Z,0.50
2023-03-11T19:08:03.720Z,0.40
2023-03-11T19:13:09.633Z,0.40
2023-03-11T19:18:15.409Z,0.30
2023-03-11T19:23:20.585Z,0.30
2023-03-11T19:28:26.388Z,0.30
2023-03-11T19:33:31.630Z,0.30
2023-03-11T19:38:37.095Z,0.30
2023-03-11T19:43:44.720Z,0.30
2023-03-11T19:48:50.024Z,0.20
2023-03-11T19:53:55.115Z,0.20
2023-03-11T19:59:00.251Z,0.20
2023-03-11T20:04:06.485Z,0.10
2023-03-11T20:09:13.581Z,0.10
2023-03-11T20:14:20.342Z,0.00
2023-03-11T20:19:25.759Z,0.00
2023-03-11T20:24:30.857Z,-0.10
2023-03-11T20:29:36.490Z,-0.10
2023-03-11T20:34:41.711Z,-0.10
2023-03-11T20:39:46.844Z,-0.10
2023-03-11T20:44:55.913Z,-0.10
2023-03-11T20:50:01.151Z,-0.20
2023-03-11T20:55:08.567Z,-0.20
2023-03-11T21:00:15.429Z,-0.20
2023-03-11T21:05:20.610Z,-0.30
2023-03-11T21:10:25.766Z,-0.30
2023-03-11T21:15:32.220Z,-0.30
2023-03-11T21:20:38.707Z,-0.30
2023-03-11T21:25:43.895Z,-0.30
2023-03-11T21:30:50.946Z,-0.30
2023-03-11T21:35:57.938Z,-0.40
2023-03-11T21:41:09.418Z,-0.40
2023-03-11T21:46:17.674Z,-0.40
2023-03-11T21:51:23.684Z,-0.40
2023-03-11T21:56:29.063Z,-0.30
2023-03-11T22:01:34.789Z,-0.30
2023-03-11T22:06:40.372Z,-0.20
2023-03-11T22:11:45.861Z,-0.10
2023-03-11T22:16:51.533Z,0.00
2023-03-11T22:21:57.002Z,0.10
2023-03-11T22:27:02.091Z,0.10
2023-03-11T22:32:07.633Z,0.20
2023-03-11T22:37:12.874Z,0.30
2023-03-11T22:42:18.146Z,0.30
2023-03-11T22:47:23.171Z,0.40
2023-03-11T22:52:29.938Z,0.50
2023-03-11T22:57:36.711Z,0.60
2023-03-11T23:02:41.906Z,0.60
2023-03-11T23:07:47.229Z,0.60
2023-03-11T23:12:52.414Z,0.80
2023-03-11T23:17:57.642Z,0.80
2023-03-11T23:23:03.241Z,0.80
2023-03-11T23:28:09.124Z,0.90
2023-03-11T23:33:14.228Z,0.90
2023-03-11T23:38:19.322Z,0.90
2023-03-11T23:43:26.101Z,1.00
2023-03-11T23:48:31.340Z,1.00
2023-03-11T23:53:37.224Z,1.00
2023-03-11T23:58:42.513Z,1.00
